Time;durP1;ratioP1;P1;durP2;ratioP2;P2;SDS_P1;SDS_P2;PMS_P1;PMS_P2;Temp;Humidity;BMP_temperature;BMP_pressure;BME280_temperature;BME280_humidity;BME280_pressure;Samples;Min_cycle;Max_cycle;Signal;HPM_P1;HPM_P2
2023/11/23 00:00:23;;;;;;;5.75;3.35;;;8.60;99.90;;;;;;4999937;28;20030;-71
2023/11/23 00:02:48;;;;;;;5.63;3.42;;;8.60;99.90;;;;;;5003424;28;20050;-70
2023/11/23 00:05:14;;;;;;;4.70;3.38;;;8.70;99.90;;;;;;5036509;28;20065;-70
2023/11/23 00:07:40;;;;;;;12.98;5.30;;;8.70;99.90;;;;;;5030136;28;20050;-71
2023/11/23 00:10:06;;;;;;;5.03;3.22;;;8.70;99.90;;;;;;5038908;28;20037;-70
2023/11/23 00:12:33;;;;;;;5.70;3.25;;;8.70;99.90;;;;;;5039241;28;20111;-70
2023/11/23 00:15:00;;;;;;;5.43;3.78;;;8.70;99.90;;;;;;5033998;28;20573;-71
2023/11/23 00:17:26;;;;;;;6.03;2.95;;;8.70;99.90;;;;;;5034810;28;20054;-71
2023/11/23 00:19:51;;;;;;;11.32;4.50;;;8.70;99.90;;;;;;5031385;28;20034;-70
2023/11/23 00:22:17;;;;;;;12.30;4.13;;;8.80;99.90;;;;;;5036704;28;20101;-71
2023/11/23 00:24:43;;;;;;;5.78;3.20;;;8.80;99.90;;;;;;5002649;28;20129;-71
2023/11/23 00:27:08;;;;;;;6.88;4.32;;;8.80;99.90;;;;;;5030353;28;20034;-71
2023/11/23 00:29:34;;;;;;;6.43;3.85;;;8.80;99.90;;;;;;5026097;28;20054;-71
2023/11/23 00:32:00;;;;;;;5.13;2.78;;;8.90;99.90;;;;;;5037265;28;20438;-71
2023/11/23 00:34:26;;;;;;;6.68;3.65;;;8.90;99.90;;;;;;5036208;28;20192;-71
2023/11/23 00:36:51;;;;;;;5.53;3.83;;;9.00;99.90;;;;;;5035394;28;20045;-71
2023/11/23 00:39:17;;;;;;;4.65;3.35;;;9.00;99.90;;;;;;5000034;28;20041;-71
2023/11/23 00:41:43;;;;;;;7.28;3.75;;;9.00;99.90;;;;;;5039257;28;20033;-71
2023/11/23 00:44:10;;;;;;;4.97;3.17;;;9.00;99.90;;;;;;5037063;28;20401;-71
2023/11/23 00:46:36;;;;;;;4.88;2.75;;;9.10;99.90;;;;;;5001893;28;20117;-71
2023/11/23 00:49:04;;;;;;;7.88;3.92;;;9.10;99.90;;;;;;5013632;28;20405;-71
2023/11/23 00:51:29;;;;;;;4.70;3.22;;;9.10;99.90;;;;;;5034341;28;20042;-71
2023/11/23 00:53:55;;;;;;;6.18;3.33;;;9.10;99.90;;;;;;5033797;28;20099;-71
2023/11/23 00:56:22;;;;;;;6.53;3.10;;;9.20;99.90;;;;;;5032533;28;20046;-71
2023/11/23 00:58:48;;;;;;;5.43;3.67;;;9.20;99.90;;;;;;5018709;28;20038;-71
2023/11/23 01:01:17;;;;;;;5.65;3.13;;;9.20;99.90;;;;;;5035329;28;20536;-71
2023/11/23 01:03:42;;;;;;;5.65;2.88;;;9.20;99.90;;;;;;5020800;28;20088;-71
2023/11/23 01:06:08;;;;;;;10.00;3.78;;;9.20;99.90;;;;;;5036789;28;20077;-71
2023/11/23 01:08:34;;;;;;;5.47;3.40;;;9.30;99.90;;;;;;5002049;28;20490;-72
2023/11/23 01:11:00;;;;;;;5.68;3.45;;;9.20;99.90;;;;;;5006056;28;20044;-72
2023/11/23 01:13:26;;;;;;;9.40;3.00;;;9.20;99.90;;;;;;5052120;28;20053;-71
2023/11/23 01:15:52;;;;;;;4.60;2.60;;;9.30;99.90;;;;;;4994958;28;20461;-71
2023/11/23 01:18:18;;;;;;;7.03;4.07;;;9.30;99.90;;;;;;5033075;28;20506;-72
2023/11/23 01:20:44;;;;;;;6.40;3.20;;;9.30;99.90;;;;;;5029081;28;20049;-71
2023/11/23 01:23:11;;;;;;;5.50;3.10;;;9.30;99.90;;;;;;5035067;28;20053;-71
2023/11/23 01:25:36;;;;;;;4.78;3.08;;;9.30;99.90;;;;;;5029025;28;20057;-72
2023/11/23 01:28:02;;;;;;;5.70;3.63;;;9.30;99.90;;;;;;5034982;28;20029;-71
2023/11/23 01:30:28;;;;;;;6.03;2.50;;;9.40;99.90;;;;;;4985960;28;20042;-71
2023/11/23 01:32:54;;;;;;;5.32;3.08;;;9.40;99.90;;;;;;5033814;28;20042;-71
2023/11/23 01:35:20;;;;;;;6.07;3.63;;;9.40;99.90;;;;;;5002361;28;20034;-71
2023/11/23 01:37:46;;;;;;;4.95;2.90;;;9.50;99.90;;;;;;5029201;28;20067;-72
2023/11/23 01:40:12;;;;;;;8.02;2.78;;;9.50;99.90;;;;;;4999577;28;20039;-71
2023/11/23 01:42:38;;;;;;;5.25;3.35;;;9.50;99.90;;;;;;5030120;28;20042;-71
2023/11/23 01:45:04;;;;;;;5.40;3.20;;;9.50;99.90;;;;;;5030392;28;20121;-72
2023/11/23 01:47:32;;;;;;;5.82;3.30;;;9.50;99.90;;;;;;5003127;28;20050;-71
2023/11/23 01:50:02;;;;;;;5.55;3.17;;;9.60;99.90;;;;;;4999065;28;20038;-72
2023/11/23 01:52:29;;;;;;;6.80;3.17;;;9.50;99.90;;;;;;5029138;28;20042;-72
2023/11/23 01:54:56;;;;;;;5.82;2.38;;;9.60;99.90;;;;;;5035464;28;20069;-71
2023/11/23 01:57:23;;;;;;;5.35;3.17;;;9.60;99.90;;;;;;5034398;28;20490;-71
2023/11/23 01:59:50;;;;;;;6.03;2.58;;;9.60;99.90;;;;;;5022551;28;20559;-71
2023/11/23 02:02:16;;;;;;;10.75;3.20;;;9.70;99.90;;;;;;4996586;28;20065;-71
2023/11/23 02:04:42;;;;;;;4.07;2.63;;;9.70;99.90;;;;;;5034883;28;20510;-71
2023/11/23 02:07:08;;;;;;;9.13;3.05;;;9.70;99.90;;;;;;5001584;28;20101;-72
2023/11/23 02:09:34;;;;;;;6.88;3.33;;;9.70;99.90;;;;;;5033149;28;20487;-71
2023/11/23 02:12:06;;;;;;;5.65;2.70;;;9.70;99.90;;;;;;5029595;28;20528;-71
2023/11/23 02:14:33;;;;;;;4.65;2.65;;;9.70;99.90;;;;;;4988037;28;20049;-71
2023/11/23 02:16:59;;;;;;;3.20;2.00;;;9.80;99.90;;;;;;5033197;28;20050;-71
2023/11/23 02:19:25;;;;;;;4.20;2.45;;;9.80;99.90;;;;;;5044706;28;20046;-71
2023/11/23 02:21:50;;;;;;;4.45;2.67;;;9.80;99.90;;;;;;4997063;28;20050;-71
2023/11/23 02:24:16;;;;;;;4.78;2.40;;;9.80;99.90;;;;;;5037112;28;20088;-72
2023/11/23 02:26:42;;;;;;;3.47;2.20;;;9.80;99.90;;;;;;5003726;28;20046;-71
2023/11/23 02:29:07;;;;;;;4.10;2.40;;;9.90;99.90;;;;;;5002826;28;20160;-71
2023/11/23 02:31:33;;;;;;;4.00;2.17;;;9.90;99.90;;;;;;5032718;28;20076;-72
2023/11/23 02:34:00;;;;;;;3.15;1.88;;;9.90;99.90;;;;;;5038277;28;20037;-71
2023/11/23 02:36:26;;;;;;;6.05;2.55;;;9.90;99.90;;;;;;5005254;28;20590;-71
2023/11/23 02:38:52;;;;;;;6.85;2.53;;;9.90;99.90;;;;;;5006353;28;20035;-71
2023/11/23 02:41:17;;;;;;;3.92;2.33;;;10.00;99.90;;;;;;4999522;28;20050;-72
2023/11/23 02:43:43;;;;;;;4.35;2.45;;;10.00;99.90;;;;;;5036522;28;20571;-71
2023/11/23 02:46:09;;;;;;;2.72;1.52;;;10.00;99.90;;;;;;5018808;28;20045;-72
2023/11/23 02:48:35;;;;;;;5.30;2.45;;;10.00;99.90;;;;;;5032947;28;20072;-72
2023/11/23 02:51:00;;;;;;;3.42;2.08;;;10.00;99.90;;;;;;5005603;28;20584;-72
2023/11/23 02:53:31;;;;;;;3.30;1.85;;;10.10;99.90;;;;;;5037948;28;20054;-72
2023/11/23 02:55:57;;;;;;;5.05;1.95;;;10.10;99.90;;;;;;5040175;28;20111;-72
2023/11/23 02:58:23;;;;;;;1.42;0.93;;;10.10;99.90;;;;;;5041479;28;20049;-72
2023/11/23 03:00:51;;;;;;;5.13;1.63;;;10.10;99.90;;;;;;5006153;28;20069;-71
2023/11/23 03:03:17;;;;;;;2.20;1.48;;;10.10;99.90;;;;;;5041214;28;20042;-71
2023/11/23 03:05:42;;;;;;;2.63;1.15;;;10.20;99.90;;;;;;5002841;28;20042;-72
2023/11/23 03:08:08;;;;;;;3.90;1.35;;;10.20;99.90;;;;;;5021710;28;20046;-72
2023/11/23 03:10:34;;;;;;;2.17;1.30;;;10.30;99.90;;;;;;5035581;28;20038;-71
2023/11/23 03:13:02;;;;;;;3.05;1.60;;;10.30;99.90;;;;;;5037010;28;20405;-72
2023/11/23 03:15:29;;;;;;;2.92;1.20;;;10.30;99.90;;;;;;5005661;28;20042;-72
2023/11/23 03:17:55;;;;;;;3.50;1.48;;;10.30;99.90;;;;;;5039524;28;20050;-72
2023/11/23 03:20:21;;;;;;;5.93;1.42;;;10.40;99.90;;;;;;5037454;28;20478;-72
2023/11/23 03:22:46;;;;;;;2.45;1.05;;;10.40;99.90;;;;;;5019723;28;20031;-72
2023/11/23 03:25:12;;;;;;;1.08;0.50;;;10.40;99.90;;;;;;5053872;28;20038;-71
2023/11/23 03:27:38;;;;;;;3.60;0.63;;;10.40;99.90;;;;;;5007935;28;20033;-72
2023/11/23 03:30:09;;;;;;;1.45;0.28;;;10.50;99.90;;;;;;5036905;28;20056;-72
2023/11/23 03:32:35;;;;;;;1.08;0.55;;;10.60;99.90;;;;;;5002192;28;20609;-72
2023/11/23 03:35:01;;;;;;;1.10;0.40;;;10.60;99.90;;;;;;5036582;28;20112;-72
2023/11/23 03:37:27;;;;;;;0.80;0.30;;;10.70;99.90;;;;;;5034708;28;20188;-72
2023/11/23 03:39:54;;;;;;;3.78;0.60;;;10.70;99.90;;;;;;5018074;28;20064;-72
2023/11/23 03:42:20;;;;;;;0.85;0.43;;;10.80;99.90;;;;;;5004808;28;20184;-72
2023/11/23 03:44:46;;;;;;;3.40;0.82;;;10.80;99.90;;;;;;5038020;28;20125;-72
2023/11/23 03:47:12;;;;;;;4.50;0.73;;;10.70;99.90;;;;;;5038468;28;20608;-72
2023/11/23 03:49:39;;;;;;;1.17;0.50;;;10.80;99.90;;;;;;5005671;28;20046;-72
2023/11/23 03:52:05;;;;;;;2.30;0.70;;;10.70;99.90;;;;;;5041746;28;20042;-71
2023/11/23 03:54:30;;;;;;;0.68;0.50;;;10.70;99.90;;;;;;5003014;28;20050;-72
2023/11/23 03:56:57;;;;;;;2.08;0.93;;;10.70;99.90;;;;;;5002492;28;20045;-72
2023/11/23 03:59:23;;;;;;;3.08;0.75;;;10.80;99.90;;;;;;5000874;28;20049;-72
2023/11/23 04:01:50;;;;;;;4.07;0.60;;;10.70;99.90;;;;;;5039603;28;20067;-72
2023/11/23 04:04:15;;;;;;;2.25;0.60;;;10.70;99.90;;;;;;5000396;28;20041;-72
2023/11/23 04:06:41;;;;;;;1.63;0.60;;;10.70;99.90;;;;;;5034888;28;20046;-72
2023/11/23 04:09:10;;;;;;;0.70;0.30;;;10.70;99.90;;;;;;5035731;28;20525;-72
2023/11/23 04:11:36;;;;;;;1.42;0.65;;;10.70;99.90;;;;;;5040307;28;20113;-72
2023/11/23 04:14:02;;;;;;;3.58;0.73;;;10.70;99.90;;;;;;5000561;28;20113;-72
2023/11/23 04:16:28;;;;;;;2.15;0.40;;;10.70;99.90;;;;;;5000058;28;20049;-72
2023/11/23 04:18:54;;;;;;;0.63;0.47;;;10.80;99.90;;;;;;5001898;28;20030;-72
2023/11/23 04:21:19;;;;;;;1.10;0.40;;;10.80;99.90;;;;;;5031858;28;20180;-72
2023/11/23 04:23:45;;;;;;;2.70;0.40;;;10.80;99.90;;;;;;5002584;28;20049;-72
2023/11/23 04:26:11;;;;;;;2.03;0.30;;;10.80;99.90;;;;;;5030634;28;20119;-72
2023/11/23 04:28:39;;;;;;;4.22;0.50;;;10.80;99.90;;;;;;5040069;28;20021;-72
2023/11/23 04:31:05;;;;;;;1.10;0.20;;;10.90;99.90;;;;;;5001099;28;20053;-72
2023/11/23 04:33:31;;;;;;;0.68;0.30;;;10.80;99.90;;;;;;5010310;28;20057;-72
2023/11/23 04:35:57;;;;;;;1.85;0.40;;;10.90;99.90;;;;;;5031001;28;20038;-72
2023/11/23 04:38:24;;;;;;;2.17;0.20;;;10.90;99.90;;;;;;5017320;28;20038;-72
2023/11/23 04:40:50;;;;;;;3.33;0.63;;;10.90;99.90;;;;;;5036935;28;20054;-72
2023/11/23 04:43:16;;;;;;;2.00;0.35;;;10.90;99.90;;;;;;5037039;28;20128;-72
2023/11/23 04:45:43;;;;;;;3.83;0.38;;;10.90;99.90;;;;;;5033484;28;20037;-72
2023/11/23 04:48:09;;;;;;;4.05;0.60;;;11.00;99.90;;;;;;5002460;28;20061;-72
2023/11/23 04:50:36;;;;;;;1.60;0.50;;;10.90;99.90;;;;;;5003261;28;20064;-72
2023/11/23 04:53:03;;;;;;;8.25;0.70;;;11.00;99.90;;;;;;5026769;28;20049;-72
2023/11/23 04:55:29;;;;;;;1.90;0.28;;;10.90;99.90;;;;;;5000334;28;20089;-72
2023/11/23 04:57:55;;;;;;;0.10;0.08;;;11.00;99.90;;;;;;5035946;28;20041;-72
2023/11/23 05:00:24;;;;;;;2.47;0.52;;;10.90;99.90;;;;;;5035084;28;20042;-72
2023/11/23 05:02:54;;;;;;;2.55;0.25;;;10.90;99.90;;;;;;5002010;28;20097;-72
2023/11/23 05:05:20;;;;;;;4.75;0.70;;;11.00;99.90;;;;;;5004200;28;20053;-72
2023/11/23 05:07:46;;;;;;;0.30;0.20;;;11.00;99.90;;;;;;5012608;28;20049;-72
2023/11/23 05:10:12;;;;;;;1.17;0.52;;;11.00;99.90;;;;;;5036194;28;20073;-72
2023/11/23 05:12:39;;;;;;;0.32;0.08;;;11.00;99.90;;;;;;5030637;28;20081;-72
2023/11/23 05:15:05;;;;;;;2.58;0.20;;;11.00;99.90;;;;;;5003151;28;20050;-72
2023/11/23 05:17:32;;;;;;;2.70;0.30;;;11.00;99.90;;;;;;5000908;28;20438;-72
2023/11/23 05:19:58;;;;;;;1.00;0.28;;;11.10;99.90;;;;;;5005620;28;20052;-72
2023/11/23 05:22:24;;;;;;;0.22;0.20;;;11.20;99.90;;;;;;5033154;28;20069;-72
2023/11/23 05:24:50;;;;;;;1.85;0.63;;;11.20;99.90;;;;;;5031817;28;20041;-71
2023/11/23 05:27:16;;;;;;;0.50;0.10;;;11.20;99.90;;;;;;5034069;28;20431;-72
2023/11/23 05:29:42;;;;;;;4.10;0.22;;;11.20;99.90;;;;;;5034121;28;20037;-72
2023/11/23 05:32:07;;;;;;;0.55;0.43;;;11.30;99.90;;;;;;5026717;28;20049;-71
2023/11/23 05:34:33;;;;;;;2.55;0.40;;;11.20;99.90;;;;;;5032344;28;20042;-72
2023/11/23 05:36:59;;;;;;;0.75;0.40;;;11.30;99.90;;;;;;5034833;28;20042;-72
2023/11/23 05:39:24;;;;;;;0.40;0.22;;;11.30;99.90;;;;;;5033855;28;20141;-72
2023/11/23 05:41:50;;;;;;;2.63;0.17;;;11.30;99.90;;;;;;5021429;28;20041;-72
2023/11/23 05:44:16;;;;;;;1.65;0.38;;;11.30;99.90;;;;;;4997810;28;20046;-72
2023/11/23 05:46:42;;;;;;;0.32;0.10;;;11.30;99.90;;;;;;5040724;28;20125;-72
2023/11/23 05:49:08;;;;;;;2.58;0.40;;;11.30;99.90;;;;;;5039524;28;20102;-72
2023/11/23 05:51:33;;;;;;;3.40;0.30;;;11.30;99.90;;;;;;5031628;28;20048;-72
2023/11/23 05:53:59;;;;;;;0.10;0.10;;;11.30;99.90;;;;;;5000266;28;20042;-72
2023/11/23 05:56:28;;;;;;;3.63;0.45;;;11.30;99.90;;;;;;5037122;28;20046;-72
2023/11/23 05:58:54;;;;;;;10.93;1.05;;;11.30;99.90;;;;;;5036338;28;20042;-72
2023/11/23 06:01:20;;;;;;;0.68;0.30;;;11.30;99.90;;;;;;5026390;28;20502;-72
2023/11/23 06:03:45;;;;;;;4.90;0.52;;;11.30;99.90;;;;;;5002821;28;20049;-72
2023/11/23 06:06:22;;;;;;;0.60;0.28;;;11.30;99.90;;;;;;5039524;28;20053;-72
2023/11/23 06:08:49;;;;;;;0.65;0.20;;;11.30;99.90;;;;;;5001832;28;20065;-72
2023/11/23 06:11:16;;;;;;;4.85;0.65;;;11.40;99.90;;;;;;5033349;28;20502;-72
2023/11/23 06:13:48;;;;;;;0.73;0.20;;;11.40;99.90;;;;;;5037304;28;20084;-72
2023/11/23 06:16:14;;;;;;;0.30;0.10;;;11.40;99.90;;;;;;5051586;28;20073;-72
2023/11/23 06:18:41;;;;;;;4.10;0.40;;;11.40;99.90;;;;;;5026966;28;20565;-72
2023/11/23 06:21:08;;;;;;;3.63;0.73;;;11.40;99.90;;;;;;5028292;28;20038;-72
2023/11/23 06:23:33;;;;;;;1.20;0.20;;;11.40;99.90;;;;;;5006553;28;20490;-72
2023/11/23 06:25:59;;;;;;;0.70;0.28;;;11.40;99.90;;;;;;5037437;28;20033;-71
2023/11/23 06:28:25;;;;;;;2.28;0.40;;;11.40;99.90;;;;;;5006116;28;20498;-72
2023/11/23 06:30:51;;;;;;;2.55;0.20;;;11.40;99.90;;;;;;5038249;28;20041;-71
2023/11/23 06:33:17;;;;;;;2.58;0.28;;;11.40;99.90;;;;;;5007356;28;20084;-71
2023/11/23 06:35:43;;;;;;;0.00;0.00;;;11.40;99.90;;;;;;5038805;28;20055;-71
2023/11/23 06:38:09;;;;;;;2.70;0.40;;;11.40;99.90;;;;;;5036937;28;20128;-71
2023/11/23 06:40:35;;;;;;;1.70;0.30;;;11.40;99.90;;;;;;5009944;28;20076;-71
2023/11/23 06:43:07;;;;;;;1.17;0.20;;;11.40;99.90;;;;;;5041480;28;20056;-71
2023/11/23 06:45:33;;;;;;;0.43;0.20;;;11.40;99.90;;;;;;5032334;28;20119;-71
2023/11/23 06:47:58;;;;;;;0.88;0.22;;;11.40;99.90;;;;;;5011384;28;20030;-71
2023/11/23 06:50:24;;;;;;;0.63;0.30;;;11.40;99.90;;;;;;5045098;28;20038;-71
2023/11/23 06:52:50;;;;;;;3.08;0.10;;;11.40;99.90;;;;;;5036584;28;20038;-71
2023/11/23 06:55:15;;;;;;;0.55;0.10;;;11.40;99.90;;;;;;5037009;28;20045;-71
2023/11/23 06:57:46;;;;;;;1.33;0.50;;;11.50;99.90;;;;;;5036178;28;20038;-71
2023/11/23 07:00:25;;;;;;;1.55;0.20;;;11.40;99.90;;;;;;5018593;28;20161;-71
2023/11/23 07:02:56;;;;;;;2.38;0.30;;;11.50;99.90;;;;;;5034391;28;20037;-71
2023/11/23 07:05:24;;;;;;;0.20;0.10;;;11.50;99.90;;;;;;5036985;28;19928;-72
2023/11/23 07:07:51;;;;;;;4.50;0.30;;;11.50;99.90;;;;;;5004972;28;20337;-72
2023/11/23 07:10:17;;;;;;;2.58;0.38;;;11.40;99.90;;;;;;5034653;28;20049;-71
2023/11/23 07:12:44;;;;;;;0.40;0.22;;;11.40;99.90;;;;;;5002152;28;20034;-71
2023/11/23 07:15:11;;;;;;;2.05;0.30;;;11.50;99.90;;;;;;5031255;28;20116;-73
2023/11/23 07:17:49;;;;;;;0.57;0.35;;;11.50;99.90;;;;;;5040883;28;20082;-73
2023/11/23 07:20:14;;;;;;;1.55;0.25;;;11.40;99.90;;;;;;5008868;28;20069;-72
2023/11/23 07:22:40;;;;;;;2.65;0.35;;;11.40;99.90;;;;;;5032310;28;20201;-72
2023/11/23 07:25:09;;;;;;;0.57;0.20;;;11.40;99.90;;;;;;5042546;28;20398;-72
2023/11/23 07:27:36;;;;;;;0.98;0.28;;;11.40;99.90;;;;;;5034957;28;20046;-72
2023/11/23 07:30:06;;;;;;;1.85;0.38;;;11.40;99.90;;;;;;5007333;28;20034;-72
2023/11/23 07:32:32;;;;;;;3.13;0.65;;;11.50;99.90;;;;;;5006340;28;20074;-72
2023/11/23 07:34:58;;;;;;;2.80;0.45;;;11.40;99.90;;;;;;5002056;28;20133;-73
2023/11/23 07:37:24;;;;;;;1.05;0.10;;;11.50;99.90;;;;;;5031722;28;20140;-73
2023/11/23 07:39:50;;;;;;;1.35;0.55;;;11.40;99.90;;;;;;5036913;28;20042;-72
2023/11/23 07:42:16;;;;;;;0.13;0.10;;;11.40;99.90;;;;;;5031103;28;20096;-72
2023/11/23 07:44:43;;;;;;;4.63;0.40;;;11.50;99.90;;;;;;4999647;28;20049;-73
2023/11/23 07:47:11;;;;;;;0.35;0.20;;;11.50;99.90;;;;;;5035251;28;20050;-73
2023/11/23 07:49:37;;;;;;;3.80;0.20;;;11.50;99.90;;;;;;5005021;28;20153;-73
2023/11/23 07:52:03;;;;;;;1.75;0.32;;;11.50;99.90;;;;;;5037046;28;20034;-73
2023/11/23 07:54:28;;;;;;;4.18;0.40;;;11.50;99.90;;;;;;5031185;28;20053;-73
2023/11/23 07:56:54;;;;;;;1.83;0.10;;;11.50;99.90;;;;;;5032632;28;20038;-73
2023/11/23 07:59:20;;;;;;;1.80;0.30;;;11.60;99.90;;;;;;5033416;28;20085;-72
2023/11/23 08:01:46;;;;;;;1.65;0.55;;;11.60;99.90;;;;;;5034451;28;20176;-73
2023/11/23 08:04:11;;;;;;;0.55;0.22;;;11.50;99.90;;;;;;5035181;28;20469;-72
2023/11/23 08:06:38;;;;;;;0.32;0.20;;;11.60;99.90;;;;;;5023929;28;20129;-73
2023/11/23 08:09:07;;;;;;;1.55;0.10;;;11.60;99.90;;;;;;5037582;28;20056;-73
2023/11/23 08:11:32;;;;;;;0.28;0.20;;;11.60;99.90;;;;;;5035257;28;20072;-72
2023/11/23 08:13:58;;;;;;;1.35;0.38;;;11.60;99.90;;;;;;5034689;28;20375;-73
2023/11/23 08:16:24;;;;;;;2.10;0.20;;;11.60;99.90;;;;;;5036302;28;20046;-73
2023/11/23 08:18:50;;;;;;;1.13;0.45;;;11.60;99.90;;;;;;5037229;28;20043;-73
2023/11/23 08:21:16;;;;;;;2.65;0.52;;;11.60;99.90;;;;;;5038670;28;20384;-72
2023/11/23 08:23:42;;;;;;;0.32;0.10;;;11.70;99.90;;;;;;5033486;28;20077;-73
2023/11/23 08:26:10;;;;;;;0.93;0.30;;;11.80;99.90;;;;;;5056135;28;20049;-73
2023/11/23 08:28:37;;;;;;;1.25;0.15;;;11.90;99.90;;;;;;5002843;28;20096;-72
2023/11/23 08:31:02;;;;;;;0.93;0.10;;;12.00;99.90;;;;;;5003957;28;20773;-72
2023/11/23 08:33:28;;;;;;;4.18;0.50;;;12.10;99.90;;;;;;5031436;28;20045;-72
2023/11/23 08:35:55;;;;;;;3.40;0.22;;;12.20;99.90;;;;;;5040696;28;20915;-73
2023/11/23 08:38:21;;;;;;;4.35;0.47;;;12.20;99.90;;;;;;5037581;28;20080;-73
2023/11/23 08:40:47;;;;;;;1.30;0.30;;;12.20;99.90;;;;;;5056157;28;20068;-72
2023/11/23 08:43:21;;;;;;;1.52;0.20;;;12.30;99.90;;;;;;5031245;28;20470;-73
2023/11/23 08:45:47;;;;;;;2.72;0.30;;;12.30;99.90;;;;;;5042748;28;20069;-72
2023/11/23 08:48:15;;;;;;;5.57;0.73;;;12.30;99.90;;;;;;5007835;28;20084;-72
2023/11/23 08:50:42;;;;;;;0.47;0.17;;;12.40;99.90;;;;;;5034040;28;20042;-73
2023/11/23 08:53:07;;;;;;;0.88;0.20;;;12.50;99.90;;;;;;4996459;28;20048;-73
2023/11/23 08:55:33;;;;;;;0.70;0.30;;;12.60;99.90;;;;;;5003111;28;20575;-73
2023/11/23 08:57:59;;;;;;;1.95;0.30;;;12.70;99.90;;;;;;5005296;28;20046;-73
2023/11/23 09:00:27;;;;;;;7.10;0.63;;;12.80;99.90;;;;;;5017046;28;20046;-73
2023/11/23 09:02:54;;;;;;;1.27;0.30;;;12.90;99.90;;;;;;5005397;28;20045;-73
2023/11/23 09:05:22;;;;;;;2.20;0.50;;;13.00;99.90;;;;;;5000475;28;20205;-73
2023/11/23 09:07:48;;;;;;;1.85;0.40;;;13.00;99.90;;;;;;5003715;28;20580;-73
2023/11/23 09:10:16;;;;;;;1.38;0.32;;;13.10;99.90;;;;;;5025957;28;20085;-73
2023/11/23 09:12:42;;;;;;;3.50;0.52;;;13.10;99.90;;;;;;5048814;28;20041;-71
2023/11/23 09:15:10;;;;;;;3.38;0.40;;;13.00;99.90;;;;;;5037884;28;20156;-72
2023/11/23 09:17:38;;;;;;;0.40;0.08;;;12.90;99.90;;;;;;5022231;28;20073;-73
2023/11/23 09:20:08;;;;;;;0.10;0.10;;;12.90;99.90;;;;;;5033186;28;20106;-72
2023/11/23 09:22:35;;;;;;;6.03;0.20;;;12.90;99.90;;;;;;5036762;28;20046;-73
2023/11/23 09:25:02;;;;;;;0.85;0.30;;;12.80;99.90;;;;;;5039683;28;20060;-73
2023/11/23 09:27:28;;;;;;;2.45;0.63;;;12.80;99.90;;;;;;5005722;28;20045;-73
2023/11/23 09:29:55;;;;;;;1.38;0.20;;;12.80;99.90;;;;;;5017925;28;20034;-73
2023/11/23 09:32:21;;;;;;;3.50;0.40;;;12.70;99.90;;;;;;5021584;28;20130;-73
2023/11/23 09:34:47;;;;;;;3.20;0.50;;;12.80;99.90;;;;;;5039495;28;20331;-73
2023/11/23 09:37:13;;;;;;;1.35;0.20;;;12.80;99.90;;;;;;4999975;28;20046;-73
2023/11/23 09:39:39;;;;;;;4.78;0.55;;;12.90;99.90;;;;;;5008127;28;20456;-73
2023/11/23 09:42:07;;;;;;;8.18;0.30;;;13.00;99.90;;;;;;5034133;28;20038;-72
2023/11/23 09:44:35;;;;;;;1.02;0.45;;;13.00;99.90;;;;;;5036804;28;20037;-73
2023/11/23 09:47:03;;;;;;;0.60;0.10;;;13.10;99.90;;;;;;5038204;28;20470;-73
2023/11/23 09:49:29;;;;;;;0.40;0.20;;;13.10;99.90;;;;;;5038521;28;20129;-73
2023/11/23 09:51:55;;;;;;;1.58;0.20;;;13.10;99.90;;;;;;5011623;28;20511;-73
2023/11/23 09:54:23;;;;;;;1.20;0.20;;;13.00;99.90;;;;;;5007590;28;20394;-73
2023/11/23 09:56:49;;;;;;;7.53;0.50;;;13.10;99.90;;;;;;5002555;28;20042;-73
2023/11/23 09:59:16;;;;;;;0.15;0.15;;;13.00;99.90;;;;;;5030370;28;20496;-73
2023/11/23 10:01:47;;;;;;;0.30;0.10;;;13.10;99.90;;;;;;5038275;28;20120;-73
2023/11/23 10:04:13;;;;;;;0.10;0.10;;;13.10;99.90;;;;;;5037531;28;20038;-73
2023/11/23 10:06:42;;;;;;;1.85;0.20;;;13.10;99.90;;;;;;5008804;28;20052;-73
2023/11/23 10:09:14;;;;;;;1.45;0.20;;;13.20;99.90;;;;;;5030119;28;20047;-73
2023/11/23 10:11:39;;;;;;;4.13;0.25;;;13.20;99.90;;;;;;5035218;28;20115;-72
2023/11/23 10:14:05;;;;;;;3.22;0.43;;;13.20;99.90;;;;;;5030771;28;20046;-73
2023/11/23 10:16:32;;;;;;;1.98;0.30;;;13.30;99.90;;;;;;5015873;28;20061;-73
2023/11/23 10:18:58;;;;;;;2.15;0.85;;;13.30;99.90;;;;;;4999080;28;20044;-72
2023/11/23 10:21:24;;;;;;;0.52;0.20;;;13.30;99.90;;;;;;5038429;28;20462;-73
2023/11/23 10:23:50;;;;;;;0.65;0.10;;;13.30;99.90;;;;;;5032400;28;20065;-73
2023/11/23 10:26:16;;;;;;;2.33;0.20;;;13.40;99.90;;;;;;5032061;28;20038;-73
2023/11/23 10:28:42;;;;;;;0.55;0.38;;;13.40;99.90;;;;;;5029622;28;20483;-72
2023/11/23 10:31:08;;;;;;;1.38;0.43;;;13.40;99.90;;;;;;5034275;28;20042;-72
2023/11/23 10:33:37;;;;;;;1.58;0.20;;;13.40;99.90;;;;;;5034630;28;20046;-73
2023/11/23 10:36:05;;;;;;;1.60;0.28;;;13.40;99.90;;;;;;5030111;28;20093;-73
2023/11/23 10:38:39;;;;;;;0.00;0.00;;;13.30;99.90;;;;;;5015635;28;20057;-73
2023/11/23 10:41:06;;;;;;;1.20;0.28;;;13.30;99.90;;;;;;5000886;28;20120;-71
2023/11/23 10:43:36;;;;;;;1.45;0.17;;;13.30;99.90;;;;;;4998558;28;20038;-73
2023/11/23 10:46:10;;;;;;;3.40;0.43;;;13.30;99.90;;;;;;4988368;28;20045;-73
2023/11/23 10:48:37;;;;;;;4.95;0.70;;;13.30;99.90;;;;;;5034301;28;20045;-73
2023/11/23 10:51:06;;;;;;;5.32;2.53;;;13.30;99.90;;;;;;4996317;28;20125;-73
2023/11/23 10:53:32;;;;;;;7.95;5.68;;;13.30;99.90;;;;;;5007970;28;20089;-73
2023/11/23 10:56:07;;;;;;;11.07;6.60;;;13.40;99.90;;;;;;5031761;28;20045;-72
2023/11/23 10:58:38;;;;;;;12.35;6.75;;;13.40;99.90;;;;;;5009901;28;20061;-73
2023/11/23 11:01:09;;;;;;;9.02;4.00;;;13.40;99.90;;;;;;5039276;28;20045;-73
2023/11/23 11:03:36;;;;;;;2.40;1.38;;;13.40;99.90;;;;;;5019209;28;20041;-73
2023/11/23 11:06:08;;;;;;;7.40;2.20;;;13.50;99.90;;;;;;5004786;28;20467;-73
2023/11/23 11:08:57;;;;;;;7.60;2.08;;;13.50;99.90;;;;;;5037971;28;20422;-73
2023/11/23 11:11:24;;;;;;;3.45;1.50;;;13.50;99.90;;;;;;5006993;28;20050;-73
2023/11/23 11:14:01;;;;;;;3.83;0.73;;;13.60;99.90;;;;;;5003885;28;20084;-73
2023/11/23 11:16:35;;;;;;;0.88;0.20;;;13.70;99.90;;;;;;5035087;28;20042;-72
2023/11/23 11:19:22;;;;;;;2.65;1.42;;;13.70;99.90;;;;;;5038651;28;20045;-73
2023/11/23 11:21:48;;;;;;;0.40;0.20;;;13.70;99.90;;;;;;5007889;28;20128;-74
2023/11/23 11:24:21;;;;;;;0.85;0.20;;;13.70;99.90;;;;;;4999647;28;20117;-73
2023/11/23 11:26:48;;;;;;;3.47;0.47;;;13.60;99.90;;;;;;5022027;28;20072;-73
2023/11/23 11:29:16;;;;;;;2.55;0.15;;;13.60;99.90;;;;;;5040734;28;20045;-73
2023/11/23 11:31:45;;;;;;;6.03;0.55;;;13.60;99.90;;;;;;5030036;28;20049;-73
2023/11/23 11:34:21;;;;;;;0.60;0.20;;;13.50;99.90;;;;;;5008488;28;20403;-73
2023/11/23 11:36:58;;;;;;;1.17;0.20;;;13.50;99.90;;;;;;5032500;28;20049;-73
2023/11/23 11:39:35;;;;;;;3.88;0.38;;;13.50;99.90;;;;;;5038831;28;20096;-73
2023/11/23 11:42:03;;;;;;;1.00;0.25;;;13.50;99.90;;;;;;4997979;28;20397;-73
2023/11/23 11:44:34;;;;;;;1.90;0.30;;;13.40;99.90;;;;;;5005811;28;20132;-72
2023/11/23 11:47:06;;;;;;;3.28;1.08;;;13.40;99.90;;;;;;5006573;28;20045;-73
2023/11/23 11:49:31;;;;;;;0.65;0.28;;;13.40;99.90;;;;;;5005746;28;20521;-72
2023/11/23 11:51:58;;;;;;;1.08;0.25;;;13.40;99.90;;;;;;5007619;28;20104;-72
2023/11/23 11:54:27;;;;;;;4.63;0.20;;;13.40;99.90;;;;;;5007921;28;20041;-73
2023/11/23 11:56:54;;;;;;;3.10;0.20;;;13.40;99.90;;;;;;5038073;28;20077;-73
2023/11/23 11:59:21;;;;;;;3.80;0.47;;;13.40;99.90;;;;;;5004458;28;20050;-73
2023/11/23 12:01:48;;;;;;;1.08;0.10;;;13.30;99.90;;;;;;5041124;28;20038;-73
2023/11/23 12:04:20;;;;;;;9.15;0.45;;;13.30;99.90;;;;;;5041896;28;20056;-73
2023/11/23 12:06:50;;;;;;;0.50;0.28;;;13.20;99.90;;;;;;5004090;28;20042;-73
2023/11/23 12:09:23;;;;;;;3.03;0.40;;;13.30;99.90;;;;;;5005803;28;20117;-72
2023/11/23 12:12:12;;;;;;;0.40;0.20;;;13.20;99.90;;;;;;4995836;28;20208;-72
2023/11/23 12:14:38;;;;;;;1.20;0.40;;;13.20;99.90;;;;;;5038785;28;20053;-72
2023/11/23 12:17:10;;;;;;;0.73;0.30;;;13.20;99.90;;;;;;5007300;28;20582;-72
2023/11/23 12:19:36;;;;;;;0.73;0.43;;;13.30;99.90;;;;;;5035580;28;20100;-73
2023/11/23 12:22:02;;;;;;;4.40;0.60;;;13.40;99.90;;;;;;5036368;28;20046;-72
2023/11/23 12:24:30;;;;;;;1.85;0.45;;;13.30;99.90;;;;;;5036751;28;20498;-73
2023/11/23 12:26:57;;;;;;;4.22;0.38;;;13.30;99.90;;;;;;5039245;28;20109;-72
2023/11/23 12:29:23;;;;;;;4.85;0.60;;;13.40;99.90;;;;;;4987723;28;20403;-73
2023/11/23 12:31:52;;;;;;;0.90;0.13;;;13.30;99.90;;;;;;5000931;28;20116;-72
2023/11/23 12:34:23;;;;;;;3.72;0.30;;;13.30;99.90;;;;;;5038817;28;20109;-72
2023/11/23 12:36:49;;;;;;;2.17;0.25;;;13.40;99.90;;;;;;5035574;28;20514;-72
2023/11/23 12:39:15;;;;;;;1.45;0.43;;;13.40;99.90;;;;;;5034018;28;20539;-72
2023/11/23 12:41:41;;;;;;;1.58;0.38;;;13.30;99.90;;;;;;5019218;28;20052;-72
2023/11/23 12:44:09;;;;;;;3.83;0.55;;;13.40;99.90;;;;;;5017368;28;20034;-73
2023/11/23 12:46:35;;;;;;;5.10;0.35;;;13.30;99.90;;;;;;5003888;28;20112;-72